createdAt,value
2018-03-01T00:00:14.884Z,15.77
2018-03-01T00:01:14.875Z,15.77
2018-03-01T00:02:14.872Z,15.77
2018-03-01T00:03:14.937Z,15.76
2018-03-01T00:04:14.912Z,15.75
2018-03-01T00:05:15.202Z,15.75
2018-03-01T00:06:14.866Z,15.75
2018-03-01T00:07:14.896Z,15.74
2018-03-01T00:08:14.896Z,15.72
2018-03-01T00:09:14.908Z,15.72
2018-03-01T00:10:14.912Z,15.71
2018-03-01T00:11:14.873Z,15.7
2018-03-01T00:12:14.871Z,15.71
2018-03-01T00:13:14.896Z,15.7
2018-03-01T00:14:14.847Z,15.7
2018-03-01T00:15:14.873Z,15.7
2018-03-01T00:16:14.875Z,15.7
2018-03-01T00:17:14.923Z,15.69
2018-03-01T00:18:14.878Z,15.69
2018-03-01T00:19:14.874Z,15.67
2018-03-01T00:20:14.870Z,15.68
2018-03-01T00:21:14.968Z,15.68
2018-03-01T00:22:15.001Z,15.67
2018-03-01T00:23:14.868Z,15.67
2018-03-01T00:24:14.890Z,15.66
2018-03-01T00:25:14.893Z,15.65
2018-03-01T00:26:14.880Z,15.66
2018-03-01T00:27:14.888Z,15.65
2018-03-01T00:28:14.875Z,15.65
2018-03-01T00:29:14.852Z,15.64
2018-03-01T00:30:14.860Z,15.64
2018-03-01T00:31:14.868Z,15.64
2018-03-01T00:32:15.152Z,15.64
2018-03-01T00:33:14.891Z,15.64
2018-03-01T00:34:14.883Z,15.63
2018-03-01T00:35:14.872Z,15.64
2018-03-01T00:36:14.716Z,15.64
2018-03-01T00:37:14.880Z,15.64
2018-03-01T00:38:14.868Z,15.64
2018-03-01T00:39:14.859Z,15.64
2018-03-01T00:40:14.883Z,15.64
2018-03-01T00:41:14.869Z,15.64
2018-03-01T00:42:20.258Z,15.64
2018-03-01T00:43:14.867Z,15.64
2018-03-01T00:44:14.875Z,15.63
2018-03-01T00:45:14.850Z,15.64
2018-03-01T00:46:14.937Z,15.62
2018-03-01T00:47:14.864Z,15.62
2018-03-01T00:48:14.866Z,15.62
2018-03-01T00:49:14.877Z,15.62
2018-03-01T00:50:14.871Z,15.62
2018-03-01T00:51:14.893Z,15.61
2018-03-01T00:52:14.851Z,15.6
2018-03-01T00:53:14.864Z,15.59
2018-03-01T00:54:14.871Z,15.59
2018-03-01T00:55:14.867Z,15.58
2018-03-01T00:56:14.870Z,15.58
2018-03-01T00:57:14.837Z,15.58
2018-03-01T00:58:14.898Z,15.57
2018-03-01T00:59:14.848Z,15.57
2018-03-01T01:00:14.876Z,15.57
2018-03-01T01:01:14.877Z,15.57
2018-03-01T01:02:14.885Z,15.57
2018-03-01T01:03:14.867Z,15.57
2018-03-01T01:04:14.868Z,15.57
2018-03-01T01:05:14.911Z,15.57
2018-03-01T01:06:14.874Z,15.56
2018-03-01T01:07:14.858Z,15.55
2018-03-01T01:08:14.851Z,15.55
2018-03-01T01:09:14.869Z,15.54
2018-03-01T01:10:14.905Z,15.54
2018-03-01T01:11:14.868Z,15.54
2018-03-01T01:12:14.864Z,15.54
2018-03-01T01:13:14.884Z,15.53
2018-03-01T01:14:14.882Z,15.53
2018-03-01T01:15:14.849Z,15.53
2018-03-01T01:16:14.899Z,15.52
2018-03-01T01:17:14.866Z,15.52
2018-03-01T01:18:14.837Z,15.52
2018-03-01T01:19:14.858Z,15.51
2018-03-01T01:20:14.867Z,15.51
2018-03-01T01:21:14.934Z,15.51
2018-03-01T01:22:14.871Z,15.51
2018-03-01T01:23:14.871Z,15.51
2018-03-01T01:24:14.880Z,15.51
2018-03-01T01:25:14.868Z,15.51
2018-03-01T01:26:14.865Z,15.51
2018-03-01T01:27:14.858Z,15.5
2018-03-01T01:28:14.854Z,15.5
2018-03-01T01:29:14.850Z,15.5
2018-03-01T01:30:14.866Z,15.5
2018-03-01T01:31:15.296Z,15.51
2018-03-01T01:32:14.852Z,15.51
2018-03-01T01:33:14.836Z,15.5
2018-03-01T01:34:14.841Z,15.5
2018-03-01T01:35:14.829Z,15.51
2018-03-01T01:36:14.887Z,15.5
2018-03-01T01:37:14.858Z,15.49
2018-03-01T01:38:14.867Z,15.49
2018-03-01T01:39:14.846Z,15.5
2018-03-01T01:40:14.860Z,15.49
2018-03-01T01:41:14.850Z,15.49
2018-03-01T01:42:14.852Z,15.49
2018-03-01T01:43:14.882Z,15.48
2018-03-01T01:44:14.836Z,15.47
2018-03-01T01:45:14.850Z,15.47
2018-03-01T01:46:14.854Z,15.46
2018-03-01T01:47:15.122Z,15.46
2018-03-01T01:48:14.857Z,15.45
2018-03-01T01:49:14.811Z,15.46
2018-03-01T01:50:14.849Z,15.45
2018-03-01T01:51:14.839Z,15.44
2018-03-01T01:52:14.872Z,15.44
2018-03-01T01:53:14.839Z,15.44
2018-03-01T01:54:14.843Z,15.44
2018-03-01T01:55:14.834Z,15.44
2018-03-01T01:56:14.816Z,15.44
2018-03-01T01:57:14.708Z,15.44
2018-03-01T01:58:14.830Z,15.43
2018-03-01T01:59:14.841Z,15.42
2018-03-01T02:00:14.847Z,15.42
2018-03-01T02:01:14.842Z,15.42
2018-03-01T02:02:14.893Z,15.42
2018-03-01T02:03:15.103Z,15.41
2018-03-01T02:04:14.819Z,15.42
2018-03-01T02:05:14.841Z,15.41
2018-03-01T02:06:14.821Z,15.4
2018-03-01T02:07:14.851Z,15.41
2018-03-01T02:08:14.861Z,15.41
2018-03-01T02:09:14.848Z,15.4
2018-03-01T02:10:14.862Z,15.39
2018-03-01T02:11:14.844Z,15.39
2018-03-01T02:12:14.814Z,15.39
2018-03-01T02:13:14.835Z,15.39
2018-03-01T02:14:14.832Z,15.39
2018-03-01T02:15:14.844Z,15.39
2018-03-01T02:16:14.833Z,15.39
2018-03-01T02:17:14.862Z,15.38
2018-03-01T02:18:14.851Z,15.38
2018-03-01T02:19:14.845Z,15.38
2018-03-01T02:20:14.836Z,15.39
2018-03-01T02:21:14.863Z,15.39
2018-03-01T02:22:14.961Z,15.38
2018-03-01T02:23:14.934Z,15.38
2018-03-01T02:24:14.825Z,15.38
2018-03-01T02:25:14.823Z,15.37
2018-03-01T02:26:14.833Z,15.37
2018-03-01T02:27:14.827Z,15.37
2018-03-01T02:28:14.828Z,15.37
2018-03-01T02:29:14.813Z,15.37
2018-03-01T02:30:14.843Z,15.37
2018-03-01T02:31:14.860Z,15.37
2018-03-01T02:32:14.834Z,15.37
2018-03-01T02:33:14.842Z,15.36
2018-03-01T02:34:14.810Z,15.35
2018-03-01T02:35:14.837Z,15.36
2018-03-01T02:36:14.817Z,15.36
2018-03-01T02:37:14.839Z,15.35
2018-03-01T02:38:14.912Z,15.35
2018-03-01T02:39:14.818Z,15.34
2018-03-01T02:40:14.876Z,15.33
2018-03-01T02:41:14.849Z,15.34
2018-03-01T02:42:14.814Z,15.34
2018-03-01T02:43:14.860Z,15.33
2018-03-01T02:44:14.846Z,15.32
2018-03-01T02:45:14.829Z,15.32
2018-03-01T02:46:14.835Z,15.31
2018-03-01T02:47:14.832Z,15.31
2018-03-01T02:48:14.863Z,15.31
2018-03-01T02:49:14.826Z,15.31
2018-03-01T02:50:14.825Z,15.31
2018-03-01T02:51:14.821Z,15.31
2018-03-01T02:52:14.829Z,15.3
2018-03-01T02:53:14.795Z,15.31
2018-03-01T02:54:15.005Z,15.3
2018-03-01T02:55:14.829Z,15.31
2018-03-01T02:56:14.859Z,15.3
2018-03-01T02:57:14.806Z,15.3
2018-03-01T02:58:14.832Z,15.29
2018-03-01T02:59:14.803Z,15.29
2018-03-01T03:00:14.806Z,15.29
2018-03-01T03:01:14.806Z,15.28
2018-03-01T03:02:14.832Z,15.3
2018-03-01T03:03:14.811Z,15.29
2018-03-01T03:04:15.096Z,15.29
2018-03-01T03:05:14.830Z,15.29
2018-03-01T03:06:14.823Z,15.28
2018-03-01T03:07:14.812Z,15.28
2018-03-01T03:08:14.814Z,15.28
2018-03-01T03:09:14.836Z,15.28
2018-03-01T03:10:14.803Z,15.28
2018-03-01T03:11:14.798Z,15.29
2018-03-01T03:12:14.812Z,15.29
2018-03-01T03:13:14.802Z,15.28
2018-03-01T03:14:14.824Z,15.28
2018-03-01T03:15:14.818Z,15.28
2018-03-01T03:16:14.836Z,15.28
2018-03-01T03:17:14.822Z,15.28
2018-03-01T03:18:14.795Z,15.28
2018-03-01T03:19:14.798Z,15.29
2018-03-01T03:20:14.829Z,15.29
2018-03-01T03:21:14.801Z,15.28
2018-03-01T03:22:14.787Z,15.28
2018-03-01T03:23:14.794Z,15.28
2018-03-01T03:24:14.828Z,15.28
2018-03-01T03:25:15.126Z,15.28
2018-03-01T03:26:14.780Z,15.28
2018-03-01T03:27:14.817Z,15.28
2018-03-01T03:28:14.803Z,15.27
2018-03-01T03:29:14.821Z,15.27
2018-03-01T03:30:14.880Z,15.26
2018-03-01T03:31:14.832Z,15.27
2018-03-01T03:32:14.797Z,15.26
2018-03-01T03:33:14.843Z,15.26
2018-03-01T03:34:14.808Z,15.26
2018-03-01T03:35:14.809Z,15.25
2018-03-01T03:36:14.807Z,15.25
2018-03-01T03:37:14.827Z,15.25
2018-03-01T03:38:14.812Z,15.25
2018-03-01T03:39:14.811Z,15.25
2018-03-01T03:40:14.836Z,15.25
2018-03-01T03:41:14.811Z,15.24
2018-03-01T03:42:14.797Z,15.24
2018-03-01T03:43:14.817Z,15.23
2018-03-01T03:44:14.840Z,15.23
2018-03-01T03:45:14.807Z,15.21
2018-03-01T03:46:14.801Z,15.21
2018-03-01T03:47:14.858Z,15.21
2018-03-01T03:48:14.804Z,15.21
2018-03-01T03:49:14.804Z,15.2
2018-03-01T03:50:14.790Z,15.21
2018-03-01T03:51:14.821Z,15.2
2018-03-01T03:52:14.789Z,15.2
2018-03-01T03:53:14.854Z,15.19
2018-03-01T03:54:14.819Z,15.18
2018-03-01T03:55:14.812Z,15.18
2018-03-01T03:56:14.842Z,15.18
2018-03-01T03:57:14.823Z,15.18
2018-03-01T03:58:14.791Z,15.18
2018-03-01T03:59:14.814Z,15.18
2018-03-01T04:00:14.777Z,15.18
2018-03-01T04:01:14.822Z,15.18
2018-03-01T04:02:14.814Z,15.18
2018-03-01T04:03:14.815Z,15.18
2018-03-01T04:04:14.790Z,15.18
2018-03-01T04:05:14.796Z,15.18
2018-03-01T04:06:14.773Z,15.17
2018-03-01T04:07:14.799Z,15.17
2018-03-01T04:08:14.789Z,15.17
2018-03-01T04:09:14.816Z,15.17
2018-03-01T04:10:14.804Z,15.16
2018-03-01T04:11:14.786Z,15.16
2018-03-01T04:12:14.815Z,15.16
2018-03-01T04:13:14.839Z,15.16
2018-03-01T04:14:14.786Z,15.16
2018-03-01T04:15:14.810Z,15.16
2018-03-01T04:16:14.769Z,15.17
2018-03-01T04:17:14.853Z,15.16
2018-03-01T04:18:14.774Z,15.17
2018-03-01T04:19:14.801Z,15.17
2018-03-01T04:20:14.808Z,15.17
2018-03-01T04:21:14.809Z,15.16
2018-03-01T04:22:14.796Z,15.16
2018-03-01T04:23:14.878Z,15.16
2018-03-01T04:24:14.884Z,15.17
2018-03-01T04:25:14.814Z,15.17
2018-03-01T04:26:14.788Z,15.16
2018-03-01T04:27:14.812Z,15.17
2018-03-01T04:28:14.776Z,15.16
2018-03-01T04:29:14.770Z,15.15
2018-03-01T04:30:14.775Z,15.16
2018-03-01T04:31:14.778Z,15.17
2018-03-01T04:32:14.812Z,15.16
2018-03-01T04:33:14.796Z,15.16
2018-03-01T04:34:14.795Z,15.14
2018-03-01T04:35:14.878Z,15.15
2018-03-01T04:36:14.774Z,15.15
2018-03-01T04:37:14.771Z,15.15
2018-03-01T04:38:15.060Z,15.14
2018-03-01T04:39:14.772Z,15.13
2018-03-01T04:40:14.769Z,15.14
2018-03-01T04:41:14.784Z,15.14
2018-03-01T04:42:14.768Z,15.14
2018-03-01T04:43:14.812Z,15.13
2018-03-01T04:44:14.771Z,15.12
2018-03-01T04:45:14.780Z,15.12
2018-03-01T04:46:14.770Z,15.12
2018-03-01T04:47:14.788Z,15.12
2018-03-01T04:48:14.813Z,15.12
2018-03-01T04:49:14.796Z,15.12
2018-03-01T04:50:14.752Z,15.12
2018-03-01T04:51:14.780Z,15.12
2018-03-01T04:52:14.797Z,15.12
2018-03-01T04:53:14.778Z,15.11
2018-03-01T04:54:14.803Z,15.12
2018-03-01T04:55:14.784Z,15.1
2018-03-01T04:56:14.775Z,15.1
2018-03-01T04:57:14.817Z,15.11
2018-03-01T04:58:14.822Z,15.11
2018-03-01T04:59:14.813Z,15.12
2018-03-01T05:00:14.797Z,15.12
2018-03-01T05:01:14.764Z,15.12
2018-03-01T05:02:14.770Z,15.12
2018-03-01T05:03:14.788Z,15.12
2018-03-01T05:04:14.757Z,15.13
2018-03-01T05:05:14.814Z,15.13
2018-03-01T05:06:14.778Z,15.14
2018-03-01T05:07:14.777Z,15.14
2018-03-01T05:08:14.758Z,15.16
2018-03-01T05:09:14.762Z,15.15
2018-03-01T05:10:14.782Z,15.17
2018-03-01T05:11:14.757Z,15.17
2018-03-01T05:12:14.754Z,15.18
2018-03-01T05:13:14.822Z,15.18
2018-03-01T05:14:14.765Z,15.19
2018-03-01T05:15:14.752Z,15.21
2018-03-01T05:16:15.100Z,15.22
2018-03-01T05:17:14.771Z,15.23
2018-03-01T05:18:14.788Z,15.25
2018-03-01T05:19:14.753Z,15.25
2018-03-01T05:20:14.792Z,15.26
2018-03-01T05:21:14.758Z,15.27
2018-03-01T05:22:14.804Z,15.29
2018-03-01T05:23:14.777Z,15.3
2018-03-01T05:24:14.759Z,15.31
2018-03-01T05:25:14.796Z,15.32
2018-03-01T05:26:14.781Z,15.33
2018-03-01T05:27:14.772Z,15.35
2018-03-01T05:28:14.788Z,15.37
2018-03-01T05:29:14.797Z,15.39
2018-03-01T05:30:14.806Z,15.4
2018-03-01T05:31:14.853Z,15.42
2018-03-01T05:32:14.756Z,15.43
2018-03-01T05:33:14.770Z,15.45
2018-03-01T05:34:14.787Z,15.47
2018-03-01T05:35:14.768Z,15.49
2018-03-01T05:36:14.778Z,15.51
2018-03-01T05:37:14.774Z,15.52
2018-03-01T05:38:14.757Z,15.54
2018-03-01T05:39:14.751Z,15.56
2018-03-01T05:40:14.783Z,15.57
2018-03-01T05:41:14.818Z,15.58
2018-03-01T05:42:14.739Z,15.61
2018-03-01T05:43:14.779Z,15.63
2018-03-01T05:44:14.769Z,15.64
2018-03-01T05:45:14.766Z,15.65
2018-03-01T05:46:14.756Z,15.67
2018-03-01T05:47:14.756Z,15.68
2018-03-01T05:48:14.764Z,15.69
2018-03-01T05:49:14.790Z,15.7
2018-03-01T05:50:14.840Z,15.72
2018-03-01T05:51:14.741Z,15.73
2018-03-01T05:52:14.746Z,15.75
2018-03-01T05:53:14.775Z,15.76
2018-03-01T05:54:14.778Z,15.77
2018-03-01T05:55:14.810Z,15.78
2018-03-01T05:56:14.773Z,15.8
2018-03-01T05:57:14.756Z,15.81
2018-03-01T05:58:14.754Z,15.83
2018-03-01T05:59:14.732Z,15.83
2018-03-01T06:00:14.817Z,15.84
2018-03-01T06:01:14.758Z,15.86
2018-03-01T06:02:14.764Z,15.87
2018-03-01T06:03:14.746Z,15.88
2018-03-01T06:04:14.776Z,15.89
2018-03-01T06:05:14.794Z,15.9
2018-03-01T06:06:14.743Z,15.91
2018-03-01T06:07:14.758Z,15.93
2018-03-01T06:08:14.764Z,15.94
2018-03-01T06:09:14.731Z,15.95
2018-03-01T06:10:14.836Z,15.96
2018-03-01T06:11:14.760Z,15.96
2018-03-01T06:12:14.759Z,15.98
2018-03-01T06:13:14.740Z,15.99
2018-03-01T06:14:14.760Z,16.01
2018-03-01T06:15:15.055Z,16.02
2018-03-01T06:16:14.762Z,16.02
2018-03-01T06:17:14.760Z,16.03
2018-03-01T06:18:14.737Z,16.05
2018-03-01T06:19:14.728Z,16.06
2018-03-01T06:20:14.765Z,16.07
2018-03-01T06:21:14.745Z,16.08
2018-03-01T06:22:14.757Z,16.09
2018-03-01T06:23:14.743Z,16.09
2018-03-01T06:24:14.847Z,16.1
2018-03-01T06:25:14.871Z,16.11
2018-03-01T06:26:14.800Z,16.12
2018-03-01T06:27:14.727Z,16.14
2018-03-01T06:28:14.772Z,16.15
2018-03-01T06:29:14.727Z,16.15
2018-03-01T06:30:14.775Z,16.15
2018-03-01T06:31:14.747Z,16.16
2018-03-01T06:32:14.750Z,16.17
2018-03-01T06:33:14.747Z,16.18
2018-03-01T06:34:14.754Z,16.19
2018-03-01T06:35:14.759Z,16.2
2018-03-01T06:36:14.767Z,16.21
2018-03-01T06:37:14.711Z,16.21
2018-03-01T06:38:14.745Z,16.22
2018-03-01T06:39:14.732Z,16.22
2018-03-01T06:40:14.760Z,16.23
2018-03-01T06:41:14.724Z,16.24
2018-03-01T06:42:14.772Z,16.25
2018-03-01T06:43:14.744Z,16.26
2018-03-01T06:44:14.779Z,16.26
2018-03-01T06:45:14.739Z,16.28
2018-03-01T06:46:14.733Z,16.28
2018-03-01T06:47:14.752Z,16.28
2018-03-01T06:48:14.719Z,16.29
2018-03-01T06:49:14.767Z,16.29
2018-03-01T06:50:14.741Z,16.3
2018-03-01T06:51:14.726Z,16.31
2018-03-01T06:52:14.739Z,16.31
2018-03-01T06:53:14.806Z,16.33
2018-03-01T06:54:15.035Z,16.33
2018-03-01T06:55:14.778Z,16.34
2018-03-01T06:56:14.730Z,16.34
2018-03-01T06:57:14.744Z,16.34
2018-03-01T06:58:14.729Z,16.35
2018-03-01T06:59:14.767Z,16.35
2018-03-01T07:00:14.761Z,16.36
2018-03-01T07:01:14.757Z,16.37
2018-03-01T07:02:14.761Z,16.37
2018-03-01T07:03:14.737Z,16.38
2018-03-01T07:04:14.786Z,16.38
2018-03-01T07:05:14.734Z,16.38
2018-03-01T07:06:14.748Z,16.39
2018-03-01T07:07:14.728Z,16.39
2018-03-01T07:08:14.738Z,16.39
2018-03-01T07:09:14.703Z,16.39
2018-03-01T07:10:14.743Z,16.39
2018-03-01T07:11:14.952Z,16.4
2018-03-01T07:12:14.724Z,16.4
2018-03-01T07:13:14.718Z,16.4
2018-03-01T07:14:14.713Z,16.4
2018-03-01T07:15:14.709Z,16.4
2018-03-01T07:16:14.726Z,16.41
2018-03-01T07:17:14.711Z,16.41
2018-03-01T07:18:14.718Z,16.41
2018-03-01T07:19:14.750Z,16.41
2018-03-01T07:20:14.773Z,16.41
2018-03-01T07:21:14.726Z,16.41
2018-03-01T07:22:14.711Z,16.41
2018-03-01T07:23:14.725Z,16.41
2018-03-01T07:24:14.717Z,16.41
2018-03-01T07:25:14.758Z,16.42
2018-03-01T07:26:14.721Z,16.41
2018-03-01T07:27:14.713Z,16.41
2018-03-01T07:28:14.724Z,16.42
2018-03-01T07:29:14.725Z,16.42
2018-03-01T07:30:14.703Z,16.43
2018-03-01T07:31:14.728Z,16.43
2018-03-01T07:32:14.745Z,16.43
2018-03-01T07:33:14.698Z,16.43
2018-03-01T07:34:14.720Z,16.44
2018-03-01T07:35:14.724Z,16.44
2018-03-01T07:36:14.752Z,16.45
2018-03-01T07:37:14.726Z,16.45
2018-03-01T07:38:14.689Z,16.46
2018-03-01T07:39:14.723Z,16.46
2018-03-01T07:40:14.712Z,16.46
2018-03-01T07:41:14.710Z,16.47
2018-03-01T07:42:14.724Z,16.47
2018-03-01T07:43:14.758Z,16.47
2018-03-01T07:44:14.698Z,16.48
2018-03-01T07:45:14.702Z,16.48
2018-03-01T07:46:14.742Z,16.49
2018-03-01T07:47:14.717Z,16.48
2018-03-01T07:48:14.697Z,16.49
2018-03-01T07:49:14.792Z,16.49
2018-03-01T07:50:14.730Z,16.49
2018-03-01T07:51:14.743Z,16.5
2018-03-01T07:52:14.722Z,16.5
2018-03-01T07:53:14.702Z,16.5
2018-03-01T07:54:14.701Z,16.5
2018-03-01T07:55:14.737Z,16.5
2018-03-01T07:56:15.026Z,16.51
2018-03-01T07:57:14.738Z,16.51
2018-03-01T07:58:14.714Z,16.52
2018-03-01T07:59:14.779Z,16.52
2018-03-01T08:00:14.696Z,16.52
2018-03-01T08:01:14.715Z,16.53
2018-03-01T08:02:14.714Z,16.53
2018-03-01T08:03:14.712Z,16.53
2018-03-01T08:04:14.734Z,16.53
2018-03-01T08:05:14.727Z,16.53
2018-03-01T08:06:14.690Z,16.53
2018-03-01T08:07:14.733Z,16.54
2018-03-01T08:08:14.718Z,16.54
2018-03-01T08:09:14.706Z,16.54
2018-03-01T08:10:14.709Z,16.54
2018-03-01T08:11:14.972Z,16.54
2018-03-01T08:12:14.707Z,16.54
2018-03-01T08:13:14.694Z,16.54
2018-03-01T08:14:14.716Z,16.54
2018-03-01T08:15:14.684Z,16.54
2018-03-01T08:16:14.744Z,16.54
2018-03-01T08:17:14.704Z,16.54
2018-03-01T08:18:14.701Z,16.55
2018-03-01T08:19:14.709Z,16.55
2018-03-01T08:20:14.690Z,16.55
2018-03-01T08:21:14.726Z,16.56
2018-03-01T08:22:14.681Z,16.56
2018-03-01T08:23:14.697Z,16.56
2018-03-01T08:24:14.728Z,16.57
2018-03-01T08:25:15.022Z,16.57
2018-03-01T08:26:14.809Z,16.58
2018-03-01T08:27:14.696Z,16.59
2018-03-01T08:28:14.718Z,16.58
2018-03-01T08:29:14.700Z,16.59
2018-03-01T08:30:14.749Z,16.6
2018-03-01T08:31:14.715Z,16.6
2018-03-01T08:32:14.759Z,16.6
2018-03-01T08:33:14.734Z,16.61
2018-03-01T08:34:14.744Z,16.61
2018-03-01T08:35:14.690Z,16.62
2018-03-01T08:36:14.706Z,16.63
2018-03-01T08:37:14.714Z,16.63
2018-03-01T08:38:14.698Z,16.64
2018-03-01T08:39:14.715Z,16.64
2018-03-01T08:40:14.690Z,16.65
2018-03-01T08:41:14.695Z,16.65
2018-03-01T08:42:14.694Z,16.66
2018-03-01T08:43:14.704Z,16.66
2018-03-01T08:44:14.720Z,16.66
2018-03-01T08:45:14.736Z,16.67
2018-03-01T08:46:14.718Z,16.67
2018-03-01T08:47:14.714Z,16.69
2018-03-01T08:48:14.688Z,16.68
2018-03-01T08:49:14.724Z,16.69
2018-03-01T08:50:14.707Z,16.69
2018-03-01T08:51:14.692Z,16.7
2018-03-01T08:52:14.695Z,16.7
2018-03-01T08:53:14.684Z,16.71
2018-03-01T08:54:14.702Z,16.71
2018-03-01T08:55:14.707Z,16.72
2018-03-01T08:56:14.778Z,16.72
2018-03-01T08:57:14.671Z,16.72
2018-03-01T08:58:14.714Z,16.73
2018-03-01T08:59:14.700Z,16.73
2018-03-01T09:00:14.691Z,16.73
2018-03-01T09:01:14.811Z,16.73
2018-03-01T09:02:14.712Z,16.74
2018-03-01T09:03:14.684Z,16.74
2018-03-01T09:04:14.717Z,16.75
2018-03-01T09:05:14.716Z,16.75
2018-03-01T09:06:14.708Z,16.76
2018-03-01T09:07:14.684Z,16.76
2018-03-01T09:08:14.693Z,16.76
2018-03-01T09:09:14.685Z,16.77
2018-03-01T09:10:14.731Z,16.77
2018-03-01T09:11:14.718Z,16.77
2018-03-01T09:12:14.699Z,16.78
2018-03-01T09:13:14.679Z,16.78
2018-03-01T09:14:14.678Z,16.78
2018-03-01T09:15:14.754Z,16.78
2018-03-01T09:16:14.678Z,16.79
2018-03-01T09:17:14.693Z,16.79
2018-03-01T09:18:14.684Z,16.79
2018-03-01T09:19:14.677Z,16.79
2018-03-01T09:20:14.733Z,16.79
2018-03-01T09:21:14.681Z,16.79
2018-03-01T09:22:14.696Z,16.79
2018-03-01T09:23:14.682Z,16.8
2018-03-01T09:24:14.690Z,16.8
2018-03-01T09:25:14.691Z,16.8
2018-03-01T09:26:14.685Z,16.8
2018-03-01T09:27:14.664Z,16.81
2018-03-01T09:28:14.697Z,16.81
2018-03-01T09:29:14.709Z,16.81
2018-03-01T09:30:14.653Z,16.82
2018-03-01T09:31:14.722Z,16.82
2018-03-01T09:32:14.687Z,16.82
2018-03-01T09:33:14.664Z,16.82
2018-03-01T09:34:14.695Z,16.82
2018-03-01T09:35:14.674Z,16.83
2018-03-01T09:36:14.698Z,16.83
2018-03-01T09:37:14.670Z,16.83
2018-03-01T09:38:14.691Z,16.84
2018-03-01T09:39:14.684Z,16.84
2018-03-01T09:40:14.678Z,16.84
2018-03-01T09:41:14.672Z,16.84
2018-03-01T09:42:14.676Z,16.85
2018-03-01T09:43:14.703Z,16.85
2018-03-01T09:44:14.676Z,16.89
2018-03-01T09:45:14.666Z,16.88
2018-03-01T09:46:14.710Z,16.88
2018-03-01T09:47:14.656Z,16.88
2018-03-01T09:48:14.678Z,16.88
2018-03-01T09:49:14.656Z,16.88
2018-03-01T09:50:14.660Z,16.89
2018-03-01T09:51:14.686Z,16.89
2018-03-01T09:52:14.655Z,16.9
2018-03-01T09:53:14.673Z,16.91
2018-03-01T09:54:14.708Z,16.91
2018-03-01T09:55:14.672Z,16.92
2018-03-01T09:56:14.731Z,16.92
2018-03-01T09:57:14.677Z,16.93
2018-03-01T09:58:14.693Z,16.93
2018-03-01T09:59:14.668Z,16.94
2018-03-01T10:00:14.718Z,16.95
2018-03-01T10:01:14.669Z,16.96
2018-03-01T10:02:15.001Z,16.96
2018-03-01T10:03:14.725Z,16.97
2018-03-01T10:04:14.652Z,16.98
2018-03-01T10:05:14.854Z,16.98
2018-03-01T10:06:14.669Z,16.99
2018-03-01T10:07:14.950Z,16.99
2018-03-01T10:08:14.657Z,17
2018-03-01T10:09:14.685Z,17
2018-03-01T10:10:14.679Z,17.01
2018-03-01T10:11:14.682Z,17.02
2018-03-01T10:12:14.691Z,17.02
2018-03-01T10:13:14.656Z,17.03
2018-03-01T10:14:14.674Z,17.03
2018-03-01T10:15:14.651Z,17.04
2018-03-01T10:16:14.662Z,17.04
2018-03-01T10:17:14.739Z,17.04
2018-03-01T10:18:14.691Z,17.06
2018-03-01T10:19:14.679Z,17.06
2018-03-01T10:20:14.661Z,17.07
2018-03-01T10:21:14.665Z,17.07
2018-03-01T10:22:14.679Z,17.08
2018-03-01T10:23:14.660Z,17.08
2018-03-01T10:24:14.681Z,17.09
2018-03-01T10:25:14.704Z,17.09
2018-03-01T10:26:14.759Z,17.1
2018-03-01T10:27:14.766Z,17.1
2018-03-01T10:28:14.656Z,17.1
2018-03-01T10:29:14.671Z,17.1
2018-03-01T10:30:14.690Z,17.11
2018-03-01T10:31:14.694Z,17.11
2018-03-01T10:32:14.680Z,17.12
2018-03-01T10:33:14.695Z,17.1
2018-03-01T10:34:14.664Z,17.1
2018-03-01T10:35:14.685Z,17.08
2018-03-01T10:36:14.741Z,17.07
2018-03-01T10:37:14.664Z,17.07
2018-03-01T10:38:14.702Z,17.07
2018-03-01T10:39:14.665Z,17.05
2018-03-01T10:40:14.645Z,17.06
2018-03-01T10:41:14.650Z,17.05
2018-03-01T10:42:14.698Z,17.04
2018-03-01T10:43:14.697Z,17.05
2018-03-01T10:44:14.636Z,17.04
2018-03-01T10:45:14.653Z,17.04
2018-03-01T10:46:14.653Z,17.04
2018-03-01T10:47:14.669Z,17.04
2018-03-01T10:48:14.690Z,17.04
2018-03-01T10:49:14.692Z,17.04
2018-03-01T10:50:14.655Z,17.03
2018-03-01T10:51:14.644Z,17.02
2018-03-01T10:52:14.698Z,17.02
2018-03-01T10:53:14.670Z,17.02
2018-03-01T10:54:14.989Z,17.02
2018-03-01T10:55:14.670Z,17.02
2018-03-01T10:56:14.661Z,17.02
2018-03-01T10:57:14.642Z,17.01
2018-03-01T10:58:14.674Z,17.02
2018-03-01T10:59:14.682Z,17.01
2018-03-01T11:00:14.659Z,17
2018-03-01T11:01:14.665Z,17
2018-03-01T11:02:14.655Z,17
2018-03-01T11:03:14.642Z,17
2018-03-01T11:04:14.690Z,17
2018-03-01T11:05:14.780Z,17
2018-03-01T11:06:14.675Z,16.99
2018-03-01T11:07:14.657Z,16.99
2018-03-01T11:08:14.655Z,16.99
2018-03-01T11:09:14.677Z,16.99
2018-03-01T11:10:14.655Z,16.99
2018-03-01T11:11:14.637Z,17
2018-03-01T11:12:14.641Z,17
2018-03-01T11:13:14.635Z,16.99
2018-03-01T11:14:14.647Z,17
2018-03-01T11:15:14.646Z,17
2018-03-01T11:16:14.683Z,17
2018-03-01T11:17:15.116Z,17
2018-03-01T11:18:14.657Z,17
2018-03-01T11:19:14.645Z,16.99
2018-03-01T11:20:14.631Z,16.99
2018-03-01T11:21:14.678Z,16.99
2018-03-01T11:22:14.636Z,17
2018-03-01T11:23:14.966Z,16.99
2018-03-01T11:24:14.671Z,16.99
2018-03-01T11:25:14.657Z,16.99
2018-03-01T11:26:14.643Z,16.99
2018-03-01T11:27:14.637Z,17
2018-03-01T11:28:14.667Z,16.99
2018-03-01T11:29:14.972Z,17
2018-03-01T11:30:14.632Z,17
2018-03-01T11:31:14.638Z,17
2018-03-01T11:32:14.631Z,16.99
2018-03-01T11:33:14.645Z,17
2018-03-01T11:34:14.640Z,17
2018-03-01T11:35:14.662Z,17
2018-03-01T11:36:14.635Z,16.99
2018-03-01T11:37:14.648Z,17
2018-03-01T11:38:14.649Z,17
2018-03-01T11:39:14.665Z,17
2018-03-01T11:40:14.672Z,17
2018-03-01T11:41:14.610Z,17.01
2018-03-01T11:42:14.628Z,17
2018-03-01T11:43:14.647Z,17
2018-03-01T11:44:14.661Z,17
2018-03-01T11:45:14.666Z,16.99
2018-03-01T11:46:14.627Z,17
2018-03-01T11:47:14.640Z,17.01
2018-03-01T11:48:14.661Z,17.01
2018-03-01T11:49:14.800Z,17
2018-03-01T11:50:14.623Z,17
2018-03-01T11:51:14.637Z,17.01
2018-03-01T11:52:14.642Z,17.01
2018-03-01T11:53:14.652Z,17.01
2018-03-01T11:54:14.629Z,17.01
2018-03-01T11:55:14.638Z,17.01
2018-03-01T11:56:14.614Z,17
2018-03-01T11:57:14.621Z,17
2018-03-01T11:58:14.633Z,17
2018-03-01T11:59:14.700Z,17
2018-03-01T12:00:14.648Z,17
2018-03-01T12:01:14.632Z,17
2018-03-01T12:02:14.636Z,17
2018-03-01T12:03:14.620Z,17
2018-03-01T12:04:14.666Z,17
2018-03-01T12:05:14.647Z,17
2018-03-01T12:06:14.635Z,17
2018-03-01T12:07:14.679Z,17
2018-03-01T12:08:14.611Z,17
2018-03-01T12:09:14.618Z,17.01
2018-03-01T12:10:14.622Z,17
2018-03-01T12:11:14.645Z,17
2018-03-01T12:12:14.643Z,17
2018-03-01T12:13:14.666Z,17
2018-03-01T12:14:14.637Z,17
2018-03-01T12:15:14.644Z,17
2018-03-01T12:16:14.605Z,17.01
2018-03-01T12:17:14.642Z,17
2018-03-01T12:18:14.630Z,17.01
2018-03-01T12:19:14.611Z,17
2018-03-01T12:20:14.628Z,17
2018-03-01T12:21:14.616Z,17.01
2018-03-01T12:22:14.661Z,17.01
2018-03-01T12:23:14.644Z,17
2018-03-01T12:24:14.641Z,17.01
2018-03-01T12:25:14.624Z,17
2018-03-01T12:26:14.664Z,17.01
2018-03-01T12:27:14.730Z,17
2018-03-01T12:28:14.742Z,17.01
2018-03-01T12:29:14.599Z,17
2018-03-01T12:30:14.625Z,17
2018-03-01T12:31:14.635Z,17
2018-03-01T12:32:14.640Z,17
2018-03-01T12:33:14.657Z,17.01
2018-03-01T12:34:14.638Z,17.01
2018-03-01T12:35:14.646Z,17.01
2018-03-01T12:36:14.634Z,17
2018-03-01T12:37:14.617Z,17.01
2018-03-01T12:38:14.634Z,17.01
2018-03-01T12:39:14.633Z,17.01
2018-03-01T12:40:14.595Z,17.01
2018-03-01T12:41:14.616Z,17.01
2018-03-01T12:42:14.627Z,17.01
2018-03-01T12:43:14.613Z,17.01
2018-03-01T12:44:14.647Z,17.01
2018-03-01T12:45:14.626Z,17.01
2018-03-01T12:46:15.041Z,17.01
2018-03-01T12:47:14.770Z,17.02
2018-03-01T12:48:14.610Z,17.02
2018-03-01T12:49:14.621Z,17.02
2018-03-01T12:50:14.642Z,17.02
2018-03-01T12:51:14.646Z,17.02
2018-03-01T12:52:14.618Z,17.02
2018-03-01T12:53:14.644Z,17.02
2018-03-01T12:54:14.680Z,17.02
2018-03-01T12:55:14.669Z,17.03
2018-03-01T12:56:14.651Z,17.03
2018-03-01T12:57:14.618Z,17.03
2018-03-01T12:58:14.650Z,17.03
2018-03-01T12:59:14.665Z,17.03
2018-03-01T13:00:14.686Z,17.03